createdAt,value
2022-10-14T00:01:20.719Z,4.77
2022-10-14T00:03:49.061Z,4.63
2022-10-14T00:06:20.655Z,4.80
2022-10-14T00:08:48.186Z,4.60
2022-10-14T00:11:21.538Z,5.37
2022-10-14T00:13:49.587Z,5.63
2022-10-14T00:16:27.566Z,5.57
2022-10-14T00:18:58.037Z,4.90
2022-10-14T00:21:26.181Z,5.20
2022-10-14T00:23:53.968Z,7.10
2022-10-14T00:26:31.645Z,5.97
2022-10-14T00:29:00.610Z,4.90
2022-10-14T00:31:28.961Z,6.63
2022-10-14T00:33:57.005Z,6.67
2022-10-14T00:36:26.248Z,5.37
2022-10-14T00:38:55.230Z,4.67
2022-10-14T00:41:29.365Z,5.03
2022-10-14T00:44:27.280Z,5.77
2022-10-14T00:46:55.804Z,5.20
2022-10-14T00:49:36.964Z,5.53
2022-10-14T00:52:15.150Z,4.83
2022-10-14T00:55:06.942Z,5.07
2022-10-14T00:57:36.467Z,4.97
2022-10-14T01:00:12.541Z,4.60
2022-10-14T01:02:40.616Z,5.23
2022-10-14T01:05:11.652Z,4.87
2022-10-14T01:07:50.593Z,4.97
2022-10-14T01:11:21.808Z,6.23
2022-10-14T01:14:03.245Z,4.97
2022-10-14T01:16:55.220Z,5.00
2022-10-14T01:19:57.815Z,4.47
2022-10-14T01:23:09.874Z,6.23
2022-10-14T01:26:18.953Z,4.67
2022-10-14T01:29:04.039Z,5.67
2022-10-14T01:31:38.338Z,6.33
2022-10-14T01:34:10.907Z,5.03
2022-10-14T01:37:08.362Z,5.20
2022-10-14T01:39:47.640Z,4.97
2022-10-14T01:42:25.435Z,5.97
2022-10-14T01:45:05.421Z,4.60
2022-10-14T01:47:36.275Z,6.70
2022-10-14T01:50:26.141Z,5.20
2022-10-14T01:53:09.132Z,6.97
2022-10-14T01:55:43.541Z,5.10
2022-10-14T01:58:14.732Z,4.67
2022-10-14T02:00:41.985Z,5.30
2022-10-14T02:03:13.289Z,5.43
2022-10-14T02:06:03.605Z,5.03
2022-10-14T02:09:03.023Z,5.13
2022-10-14T02:12:02.490Z,5.50
2022-10-14T02:14:50.089Z,6.27
2022-10-14T02:17:43.529Z,5.17
2022-10-14T02:20:20.551Z,4.83
2022-10-14T02:23:04.695Z,8.50
2022-10-14T02:25:37.130Z,5.33
2022-10-14T02:28:07.638Z,5.53
2022-10-14T02:30:43.201Z,5.23
2022-10-14T02:33:11.168Z,7.10
2022-10-14T02:35:41.169Z,6.67
2022-10-14T02:38:09.862Z,5.00
2022-10-14T02:40:44.321Z,5.23
2022-10-14T02:43:13.117Z,5.47
2022-10-14T02:45:43.665Z,5.43
2022-10-14T02:48:12.496Z,8.70
2022-10-14T02:50:41.570Z,5.40
2022-10-14T02:53:13.010Z,6.17
2022-10-14T02:55:40.276Z,5.37
2022-10-14T02:58:07.505Z,5.13
2022-10-14T03:00:35.063Z,7.03
2022-10-14T03:03:02.720Z,5.33
2022-10-14T03:05:29.950Z,6.13
2022-10-14T03:07:57.162Z,8.17
2022-10-14T03:10:24.373Z,6.17
2022-10-14T03:12:51.788Z,9.27
2022-10-14T03:15:19.086Z,6.70
2022-10-14T03:17:46.405Z,7.20
2022-10-14T03:20:13.650Z,5.73
2022-10-14T03:22:41.057Z,9.50
2022-10-14T03:25:08.987Z,6.27
2022-10-14T03:27:36.148Z,7.00
2022-10-14T03:30:04.613Z,5.97
2022-10-14T03:32:31.892Z,6.77
2022-10-14T03:34:59.076Z,5.63
2022-10-14T03:37:26.274Z,5.73
2022-10-14T03:39:53.428Z,6.17
2022-10-14T03:42:21.122Z,16.17
2022-10-14T03:44:48.566Z,17.13
2022-10-14T03:47:16.030Z,26.17
2022-10-14T03:49:43.180Z,19.73
2022-10-14T03:52:10.338Z,8.93
2022-10-14T03:54:37.588Z,10.67
2022-10-14T03:57:05.089Z,13.13
2022-10-14T03:59:32.351Z,11.13
2022-10-14T04:01:59.780Z,8.93
2022-10-14T04:04:27.193Z,13.50
2022-10-14T04:06:55.543Z,13.10
2022-10-14T04:09:22.801Z,12.77
2022-10-14T04:11:50.230Z,8.43
2022-10-14T04:14:17.386Z,9.10
2022-10-14T04:16:48.886Z,7.60
2022-10-14T04:19:17.279Z,6.10
2022-10-14T04:21:45.371Z,7.03
2022-10-14T04:24:12.611Z,6.80
2022-10-14T04:26:39.863Z,7.20
2022-10-14T04:29:07.111Z,7.53
2022-10-14T04:31:34.638Z,7.47
2022-10-14T04:34:02.033Z,8.23
2022-10-14T04:36:29.401Z,9.00
2022-10-14T04:38:56.665Z,8.00
2022-10-14T04:41:23.929Z,8.73
2022-10-14T04:43:51.132Z,8.83
2022-10-14T04:46:18.328Z,7.47
2022-10-14T04:48:48.023Z,9.13
2022-10-14T04:51:15.298Z,9.93
2022-10-14T04:53:42.786Z,23.37
2022-10-14T04:56:10.024Z,17.27
2022-10-14T04:58:37.201Z,10.17
2022-10-14T05:01:04.450Z,11.60
2022-10-14T05:03:31.685Z,10.50
2022-10-14T05:05:59.666Z,11.07
2022-10-14T05:08:26.933Z,10.53
2022-10-14T05:10:54.199Z,10.67
2022-10-14T05:13:21.411Z,9.37
2022-10-14T05:15:48.586Z,11.60
2022-10-14T05:18:15.842Z,10.80
2022-10-14T05:20:42.995Z,11.30
2022-10-14T05:23:10.458Z,12.60
2022-10-14T05:25:37.851Z,10.77
2022-10-14T05:28:05.164Z,12.87
2022-10-14T05:30:34.647Z,9.43
2022-10-14T05:33:02.294Z,9.80
2022-10-14T05:35:57.054Z,13.87
2022-10-14T05:38:17.746Z,13.10
2022-10-14T05:40:56.932Z,12.57
2022-10-14T05:43:30.878Z,14.97
2022-10-14T05:46:00.107Z,11.03
2022-10-14T05:48:27.638Z,10.27
2022-10-14T05:50:54.978Z,10.17
2022-10-14T05:53:22.229Z,10.13
2022-10-14T05:55:49.355Z,10.37
2022-10-14T05:58:16.641Z,12.43
2022-10-14T06:00:43.851Z,14.97
2022-10-14T06:03:12.663Z,12.33
2022-10-14T06:05:40.000Z,13.50
2022-10-14T06:08:07.314Z,14.53
2022-10-14T06:10:35.894Z,11.93
2022-10-14T06:13:03.216Z,11.57
2022-10-14T06:15:30.427Z,10.00
2022-10-14T06:17:57.560Z,10.97
2022-10-14T06:20:24.761Z,11.00
2022-10-14T06:22:51.996Z,10.40
2022-10-14T06:25:19.262Z,9.63
2022-10-14T06:27:47.089Z,12.23
2022-10-14T06:30:14.372Z,10.40
2022-10-14T06:32:41.737Z,9.30
2022-10-14T06:35:09.693Z,12.23
2022-10-14T06:37:37.084Z,10.70
2022-10-14T06:40:05.743Z,8.63
2022-10-14T06:42:34.632Z,8.87
2022-10-14T06:45:02.014Z,13.73
2022-10-14T06:47:29.240Z,12.83
2022-10-14T06:49:56.399Z,9.33
2022-10-14T06:52:24.931Z,9.37
2022-10-14T06:54:52.334Z,8.30
2022-10-14T06:57:19.754Z,7.97
2022-10-14T06:59:46.861Z,10.33
2022-10-14T07:02:14.120Z,6.50
2022-10-14T07:04:41.713Z,7.27
2022-10-14T07:07:09.634Z,7.00
2022-10-14T07:09:36.963Z,7.10
2022-10-14T07:12:04.314Z,9.30
2022-10-14T07:14:31.484Z,7.33
2022-10-14T07:16:59.468Z,7.33
2022-10-14T07:19:26.765Z,7.67
2022-10-14T07:21:53.986Z,8.13
2022-10-14T07:24:21.374Z,9.23
2022-10-14T07:26:48.663Z,6.53
2022-10-14T07:29:15.842Z,9.53
2022-10-14T07:31:43.069Z,8.63
2022-10-14T07:34:10.557Z,10.23
2022-10-14T07:36:37.843Z,8.40
2022-10-14T07:39:08.036Z,8.97
2022-10-14T07:41:35.818Z,11.33
2022-10-14T07:44:06.199Z,9.80
2022-10-14T07:46:38.279Z,8.00
2022-10-14T07:49:10.981Z,9.73
2022-10-14T07:51:39.315Z,7.70
2022-10-14T07:54:11.419Z,8.33
2022-10-14T07:56:41.156Z,9.50
2022-10-14T07:59:08.963Z,7.67
2022-10-14T08:01:36.550Z,8.73
2022-10-14T08:04:04.628Z,7.77
2022-10-14T08:06:31.828Z,8.37
2022-10-14T08:08:59.091Z,8.20
2022-10-14T08:11:28.965Z,8.43
2022-10-14T08:13:58.807Z,8.33
2022-10-14T08:16:29.770Z,8.23
2022-10-14T08:19:00.718Z,8.60
2022-10-14T08:21:28.470Z,8.47
2022-10-14T08:23:55.728Z,8.80
2022-10-14T08:26:33.557Z,10.00
2022-10-14T08:29:05.024Z,7.60
2022-10-14T08:31:33.060Z,8.13
2022-10-14T08:34:00.543Z,9.07
2022-10-14T08:36:27.799Z,8.10
2022-10-14T08:38:55.707Z,8.73
2022-10-14T08:41:59.327Z,8.43
2022-10-14T08:44:37.302Z,7.93
2022-10-14T08:47:13.274Z,7.83
2022-10-14T08:50:14.646Z,7.00
2022-10-14T08:52:50.431Z,6.87
2022-10-14T08:55:45.557Z,7.33
2022-10-14T08:58:21.721Z,6.97
2022-10-14T09:00:53.411Z,7.40
2022-10-14T09:03:28.268Z,6.43
2022-10-14T09:06:10.659Z,5.00
2022-10-14T09:08:43.759Z,5.30
2022-10-14T09:11:16.541Z,5.10
2022-10-14T09:13:50.574Z,4.93
2022-10-14T09:16:24.162Z,4.67
2022-10-14T09:18:57.792Z,4.50
2022-10-14T09:21:51.552Z,4.57
2022-10-14T09:24:36.534Z,5.83
2022-10-14T09:27:22.421Z,4.23
2022-10-14T09:30:05.051Z,4.83
2022-10-14T09:32:42.352Z,4.30
2022-10-14T09:35:29.142Z,5.37
2022-10-14T09:37:56.512Z,4.40
2022-10-14T09:40:36.503Z,4.13
2022-10-14T09:43:10.571Z,5.40
2022-10-14T09:45:58.181Z,4.80
2022-10-14T09:48:48.438Z,5.20
2022-10-14T09:51:23.951Z,4.90
2022-10-14T09:54:05.286Z,4.83
2022-10-14T09:56:40.719Z,5.97
2022-10-14T09:59:23.347Z,4.17
2022-10-14T10:01:56.147Z,5.67
2022-10-14T10:04:31.833Z,5.03
2022-10-14T10:07:03.656Z,6.57
2022-10-14T10:09:30.902Z,4.47
2022-10-14T10:11:58.144Z,4.00
2022-10-14T10:14:31.201Z,3.60
2022-10-14T10:17:07.765Z,3.60
2022-10-14T10:19:41.515Z,3.50
2022-10-14T10:22:24.957Z,10.40
2022-10-14T10:25:11.462Z,2.90
2022-10-14T10:27:46.310Z,3.47
2022-10-14T10:30:19.363Z,2.53
2022-10-14T10:32:46.491Z,3.03
2022-10-14T10:36:00.906Z,3.30
2022-10-14T10:39:00.669Z,3.27
2022-10-14T10:41:52.647Z,3.30
2022-10-14T10:44:53.237Z,3.70
2022-10-14T10:47:41.215Z,3.23
2022-10-14T10:50:59.066Z,3.30
2022-10-14T10:54:20.818Z,3.40
2022-10-14T10:57:09.783Z,3.40
2022-10-14T11:00:00.232Z,4.07
2022-10-14T11:02:30.314Z,3.30
2022-10-14T11:05:21.051Z,3.50
2022-10-14T11:08:13.098Z,3.20
2022-10-14T11:11:07.704Z,3.17
2022-10-14T11:13:47.544Z,4.10
2022-10-14T11:17:07.575Z,2.80
2022-10-14T11:19:52.858Z,3.15
2022-10-14T11:22:49.211Z,2.95
2022-10-14T11:25:38.179Z,3.00
2022-10-14T11:28:28.220Z,2.90
2022-10-14T11:31:43.357Z,2.83
2022-10-14T11:34:28.080Z,3.07
2022-10-14T11:37:23.913Z,3.03
2022-10-14T11:40:27.272Z,2.50
2022-10-14T11:43:29.215Z,2.40
2022-10-14T11:46:09.995Z,2.20
2022-10-14T11:48:56.463Z,2.72
2022-10-14T11:51:35.612Z,15.98
2022-10-14T11:54:15.095Z,2.25
2022-10-14T11:56:52.951Z,2.00
2022-10-14T11:59:36.890Z,2.10
2022-10-14T12:02:48.620Z,2.25
2022-10-14T12:05:46.613Z,3.13
2022-10-14T12:08:31.765Z,4.15
2022-10-14T12:11:22.191Z,1.92
2022-10-14T12:13:59.921Z,2.20
2022-10-14T12:16:27.556Z,1.83
2022-10-14T12:18:57.676Z,2.47
2022-10-14T12:21:39.640Z,1.60
2022-10-14T12:24:13.617Z,2.00
2022-10-14T12:26:50.181Z,1.88
2022-10-14T12:29:25.345Z,1.88
2022-10-14T12:32:04.558Z,1.60
2022-10-14T12:34:42.410Z,1.63
2022-10-14T12:37:28.817Z,1.80
2022-10-14T12:40:04.796Z,2.20
2022-10-14T12:42:42.583Z,2.40
2022-10-14T12:45:36.555Z,2.13
2022-10-14T12:48:21.051Z,3.93
2022-10-14T12:50:56.334Z,2.67
2022-10-14T12:53:35.282Z,2.60
2022-10-14T12:56:08.701Z,2.20
2022-10-14T12:58:56.793Z,2.45
2022-10-14T13:01:24.429Z,2.17
2022-10-14T13:04:17.393Z,2.40
2022-10-14T13:07:42.898Z,8.83
2022-10-14T13:11:08.234Z,1.80
2022-10-14T13:13:41.427Z,1.40
2022-10-14T13:16:32.136Z,1.60
2022-10-14T13:19:05.184Z,1.50
2022-10-14T13:21:35.434Z,1.27
2022-10-14T13:24:16.303Z,1.30
2022-10-14T13:27:20.952Z,1.20
2022-10-14T13:30:39.560Z,3.03
2022-10-14T13:33:26.764Z,1.20
2022-10-14T13:36:18.194Z,1.30
2022-10-14T13:39:00.134Z,1.73
2022-10-14T13:41:31.364Z,1.60
2022-10-14T13:44:02.376Z,3.00
2022-10-14T13:46:40.125Z,1.60
2022-10-14T13:52:01.973Z,1.80
2022-10-14T13:54:37.523Z,1.83
2022-10-14T13:57:47.877Z,3.50
2022-10-14T14:00:41.501Z,1.90
2022-10-14T14:03:27.521Z,4.53
2022-10-14T14:05:59.909Z,2.70
2022-10-14T14:08:40.576Z,2.60
2022-10-14T14:11:17.819Z,3.37
2022-10-14T14:14:32.146Z,2.10
2022-10-14T14:17:06.512Z,3.57
2022-10-14T14:19:37.886Z,2.40
2022-10-14T14:22:21.583Z,2.83
2022-10-14T14:24:49.878Z,2.80
2022-10-14T14:27:21.616Z,5.37
2022-10-14T14:29:52.937Z,4.50
2022-10-14T14:32:40.756Z,4.47
2022-10-14T14:35:13.359Z,15.60
2022-10-14T14:37:55.209Z,10.53
2022-10-14T14:40:30.449Z,6.93
2022-10-14T14:43:04.488Z,4.60
2022-10-14T14:45:42.744Z,5.60
2022-10-14T14:48:15.457Z,4.83
2022-10-14T14:50:45.451Z,4.70
2022-10-14T14:53:18.867Z,5.30
2022-10-14T14:56:10.347Z,5.10
2022-10-14T14:58:54.047Z,5.10
2022-10-14T15:01:26.952Z,4.27
2022-10-14T15:04:13.466Z,6.13
2022-10-14T15:06:51.057Z,4.10
2022-10-14T15:09:42.284Z,5.87
2022-10-14T15:12:28.766Z,7.43
2022-10-14T15:14:59.193Z,5.57
2022-10-14T15:17:37.375Z,4.60
2022-10-14T15:20:04.542Z,4.67
2022-10-14T15:22:40.200Z,5.57
2022-10-14T15:25:21.956Z,5.30
2022-10-14T15:27:54.415Z,4.67
2022-10-14T15:30:39.649Z,5.17
2022-10-14T15:33:21.509Z,5.60
2022-10-14T15:36:03.236Z,4.90
2022-10-14T15:41:04.654Z,9.73
2022-10-14T15:43:32.076Z,5.50
2022-10-14T15:46:00.592Z,6.90
2022-10-14T15:48:27.758Z,6.57
2022-10-14T15:50:55.136Z,8.07
2022-10-14T15:53:22.448Z,5.93
2022-10-14T15:55:53.166Z,8.73
2022-10-14T15:58:36.099Z,6.60
2022-10-14T16:01:06.517Z,8.80
2022-10-14T16:03:37.159Z,8.27
2022-10-14T16:06:07.841Z,7.47
2022-10-14T16:08:35.258Z,10.43
2022-10-14T16:11:03.574Z,7.40
2022-10-14T16:13:36.797Z,10.00
2022-10-14T16:16:11.466Z,9.67
2022-10-14T16:18:39.041Z,8.57
2022-10-14T16:21:06.633Z,9.83
2022-10-14T16:23:37.209Z,8.30
2022-10-14T16:26:05.107Z,6.27
2022-10-14T16:28:32.702Z,6.70
2022-10-14T16:31:00.905Z,10.07
2022-10-14T16:33:28.232Z,5.87
2022-10-14T16:35:57.057Z,11.17
2022-10-14T16:38:24.551Z,6.83
2022-10-14T16:41:00.765Z,60.63
2022-10-14T16:43:29.310Z,99.13
2022-10-14T16:46:01.944Z,136.03
2022-10-14T16:48:29.627Z,56.40
2022-10-14T16:50:57.129Z,31.73
2022-10-14T16:53:24.532Z,21.00
2022-10-14T16:55:51.926Z,24.33
2022-10-14T16:58:19.235Z,46.43
2022-10-14T17:00:46.417Z,42.23
2022-10-14T17:03:13.723Z,48.30
2022-10-14T17:05:41.262Z,22.53
2022-10-14T17:08:09.347Z,47.57
2022-10-14T17:10:39.773Z,28.63
2022-10-14T17:13:07.070Z,15.77
2022-10-14T17:15:34.251Z,8.40
2022-10-14T17:18:02.095Z,8.43
2022-10-14T17:20:29.230Z,9.13
2022-10-14T17:22:56.676Z,7.57
2022-10-14T17:25:23.994Z,10.87
2022-10-14T17:27:51.349Z,10.53
2022-10-14T17:30:18.552Z,9.43
2022-10-14T17:32:46.198Z,7.27
2022-10-14T17:35:15.313Z,8.20
2022-10-14T17:37:43.074Z,7.27
2022-10-14T17:40:14.707Z,9.57
2022-10-14T17:42:42.446Z,10.30
2022-10-14T17:45:10.851Z,8.00
2022-10-14T17:47:38.436Z,7.50
2022-10-14T17:50:06.496Z,8.83
2022-10-14T17:52:33.803Z,7.80
2022-10-14T17:55:01.667Z,7.57
2022-10-14T17:57:29.497Z,10.73
2022-10-14T17:59:56.941Z,9.07
2022-10-14T18:02:24.222Z,7.53
2022-10-14T18:04:51.508Z,7.67
2022-10-14T18:07:19.383Z,7.70
2022-10-14T18:09:47.750Z,8.40
2022-10-14T18:12:16.620Z,7.97
2022-10-14T18:14:43.874Z,11.13
2022-10-14T18:17:12.495Z,12.50
2022-10-14T18:19:41.625Z,9.10
2022-10-14T18:22:10.828Z,9.60
2022-10-14T18:24:38.258Z,11.20
2022-10-14T18:27:06.861Z,8.47
2022-10-14T18:29:34.269Z,10.47
2022-10-14T18:32:01.574Z,8.30
2022-10-14T18:34:28.875Z,9.37
2022-10-14T18:36:56.154Z,8.50
2022-10-14T18:39:23.714Z,8.27
2022-10-14T18:41:50.967Z,9.40
2022-10-14T18:44:18.478Z,8.63
2022-10-14T18:46:46.393Z,8.33
2022-10-14T18:49:13.926Z,8.50
2022-10-14T18:51:43.076Z,9.93
2022-10-14T18:54:20.780Z,11.57
2022-10-14T18:56:48.003Z,11.13
2022-10-14T18:59:20.676Z,7.97
2022-10-14T19:01:48.900Z,10.37
2022-10-14T19:04:16.450Z,8.07
2022-10-14T19:06:44.252Z,7.10
2022-10-14T19:09:11.481Z,7.60
2022-10-14T19:11:38.720Z,10.37
2022-10-14T19:14:06.210Z,10.43
2022-10-14T19:16:39.072Z,10.00
2022-10-14T19:19:12.174Z,8.27
2022-10-14T19:21:39.801Z,8.13
2022-10-14T19:24:07.726Z,11.90
2022-10-14T19:26:38.487Z,10.03
2022-10-14T19:29:10.590Z,9.80
2022-10-14T19:31:40.397Z,9.00
2022-10-14T19:34:11.511Z,9.20
2022-10-14T19:36:40.556Z,8.63
2022-10-14T19:39:12.988Z,7.70
2022-10-14T19:41:40.618Z,9.17
2022-10-14T19:44:07.812Z,7.00
2022-10-14T19:46:35.000Z,12.40
2022-10-14T19:49:03.836Z,11.73
2022-10-14T19:51:33.743Z,8.57
2022-10-14T19:54:01.162Z,9.07
2022-10-14T19:56:29.249Z,8.27
2022-10-14T19:58:59.373Z,9.03
2022-10-14T20:01:29.585Z,13.97
2022-10-14T20:03:59.237Z,8.23
2022-10-14T20:06:26.429Z,8.80
2022-10-14T20:08:53.598Z,10.70
2022-10-14T20:11:21.591Z,10.30
2022-10-14T20:13:48.790Z,10.50
2022-10-14T20:16:16.376Z,10.53
2022-10-14T20:18:43.747Z,10.07
2022-10-14T20:21:14.550Z,12.30
2022-10-14T20:23:43.146Z,10.20
2022-10-14T20:26:21.062Z,9.53
2022-10-14T20:28:48.868Z,10.00
2022-10-14T20:31:21.713Z,10.50
2022-10-14T20:33:49.217Z,10.43
2022-10-14T20:36:20.427Z,9.13
2022-10-14T20:38:48.530Z,11.80
2022-10-14T20:41:26.630Z,10.27
2022-10-14T20:43:55.572Z,12.90
2022-10-14T20:46:23.208Z,11.40
2022-10-14T20:48:55.458Z,10.53
2022-10-14T20:51:24.027Z,11.43
2022-10-14T20:54:02.738Z,9.37
2022-10-14T20:56:33.181Z,9.33
2022-10-14T20:59:05.266Z,8.30
2022-10-14T21:01:34.506Z,10.47
2022-10-14T21:04:05.616Z,15.90
2022-10-14T21:06:35.634Z,9.43
2022-10-14T21:09:02.939Z,10.70
2022-10-14T21:11:30.130Z,10.73
2022-10-14T21:14:00.393Z,10.37
2022-10-14T21:16:35.480Z,9.90
2022-10-14T21:19:07.881Z,11.37
2022-10-14T21:21:43.752Z,12.27
2022-10-14T21:24:14.773Z,9.57
2022-10-14T21:26:42.173Z,10.83
2022-10-14T21:29:10.033Z,10.97
2022-10-14T21:31:37.518Z,12.87
2022-10-14T21:34:06.889Z,11.17
2022-10-14T21:36:35.808Z,11.00
2022-10-14T21:39:13.449Z,11.73
2022-10-14T21:41:41.587Z,12.60
2022-10-14T21:44:15.589Z,12.43
2022-10-14T21:46:42.817Z,14.27
2022-10-14T21:49:10.983Z,10.50
2022-10-14T21:51:39.147Z,11.40
2022-10-14T21:54:07.142Z,13.63
2022-10-14T21:56:34.526Z,11.17
2022-10-14T21:59:01.739Z,10.60
2022-10-14T22:01:30.323Z,11.03
2022-10-14T22:04:01.998Z,10.50
2022-10-14T22:06:30.043Z,13.40
2022-10-14T22:08:59.386Z,14.03
2022-10-14T22:11:40.549Z,11.43
2022-10-14T22:14:14.926Z,11.97
2022-10-14T22:16:42.441Z,15.67
2022-10-14T22:19:12.312Z,13.00
2022-10-14T22:21:41.984Z,14.97
2022-10-14T22:24:10.270Z,13.63
2022-10-14T22:26:38.571Z,10.57
2022-10-14T22:29:15.993Z,15.03
2022-10-14T22:31:44.400Z,14.83
2022-10-14T22:34:16.672Z,13.40
2022-10-14T22:36:45.344Z,11.20
2022-10-14T22:39:16.203Z,10.63
2022-10-14T22:41:43.733Z,11.50
2022-10-14T22:44:10.964Z,11.20
2022-10-14T22:46:40.048Z,13.23
2022-10-14T22:49:07.345Z,10.70
2022-10-14T22:51:38.759Z,11.57
2022-10-14T22:54:05.997Z,11.47
2022-10-14T22:56:33.529Z,11.97
2022-10-14T22:59:06.080Z,13.23
2022-10-14T23:01:34.176Z,9.77
2022-10-14T23:04:02.246Z,10.57
2022-10-14T23:06:30.739Z,9.10
2022-10-14T23:08:58.211Z,11.53
2022-10-14T23:11:25.726Z,11.23
2022-10-14T23:13:54.077Z,11.53
2022-10-14T23:16:25.299Z,12.17
2022-10-14T23:18:53.974Z,14.50
2022-10-14T23:21:28.425Z,13.77
2022-10-14T23:24:02.101Z,15.87
2022-10-14T23:26:32.478Z,17.03
2022-10-14T23:29:01.798Z,18.77
2022-10-14T23:31:32.840Z,17.20
2022-10-14T23:34:07.545Z,21.87
2022-10-14T23:36:34.890Z,19.20
2022-10-14T23:39:02.075Z,17.83
2022-10-14T23:41:29.497Z,16.23
2022-10-14T23:43:56.738Z,12.23
2022-10-14T23:46:24.113Z,14.53
2022-10-14T23:49:00.971Z,12.23
2022-10-14T23:51:35.796Z,17.50
2022-10-14T23:54:04.098Z,12.67
2022-10-14T23:56:31.255Z,12.27
2022-10-14T23:58:58.464Z,12.10
